Time;durP1;ratioP1;P1;durP2;ratioP2;P2;SDS_P1;SDS_P2;PMS_P1;PMS_P2;Temp;Humidity;BMP_temperature;BMP_pressure;BME280_temperature;BME280_humidity;BME280_pressure;Samples;Min_cycle;Max_cycle;Signal;HPM_P1;HPM_P2
2022/07/27 00:01:55;;;;;;;2.58;2.20;;;24.10;65.50;;;;;;5074663;28;20415;-84
2022/07/27 00:04:21;;;;;;;3.25;2.28;;;24.10;65.30;;;;;;5063063;28;20432;-83
2022/07/27 00:06:49;;;;;;;2.53;2.30;;;24.10;65.10;;;;;;5069658;28;20397;-79
2022/07/27 00:09:18;;;;;;;3.03;2.72;;;24.10;65.10;;;;;;5071391;28;20469;-81
2022/07/27 00:11:46;;;;;;;2.88;2.63;;;24.10;65.50;;;;;;5071995;28;20968;-86
2022/07/27 00:14:13;;;;;;;5.85;3.03;;;24.00;65.50;;;;;;5066737;28;20464;-80
2022/07/27 00:16:40;;;;;;;3.78;2.95;;;24.00;66.20;;;;;;5060393;28;20928;-81
2022/07/27 00:19:07;;;;;;;3.67;2.70;;;23.90;66.80;;;;;;5071253;28;20820;-81
2022/07/27 00:21:36;;;;;;;3.72;2.78;;;23.80;67.30;;;;;;5076895;28;20405;-84
2022/07/27 00:24:10;;;;;;;2.77;2.57;;;23.80;67.40;;;;;;5078066;28;20497;-80
2022/07/27 00:26:37;;;;;;;2.97;2.63;;;23.70;67.40;;;;;;5069733;28;20407;-81
2022/07/27 00:29:04;;;;;;;3.60;2.55;;;23.70;67.20;;;;;;5074988;28;21203;-85
2022/07/27 00:31:31;;;;;;;3.17;2.75;;;23.70;67.10;;;;;;5070474;28;20415;-84
2022/07/27 00:33:58;;;;;;;3.50;2.60;;;23.70;67.20;;;;;;5072451;28;20407;-82
2022/07/27 00:36:25;;;;;;;2.65;2.45;;;23.70;67.10;;;;;;5069888;28;20967;-85
2022/07/27 00:38:52;;;;;;;2.65;2.20;;;23.60;66.80;;;;;;5065729;28;20890;-85
2022/07/27 00:41:19;;;;;;;2.70;2.50;;;23.70;66.60;;;;;;5066493;28;20427;-80
2022/07/27 00:43:57;;;;;;;2.42;2.22;;;23.70;66.40;;;;;;5069565;28;20403;-86
2022/07/27 00:46:26;;;;;;;2.97;2.30;;;23.80;66.40;;;;;;5068800;28;20387;-85
2022/07/27 00:48:53;;;;;;;3.03;2.50;;;23.80;66.20;;;;;;5086538;28;20403;-84
2022/07/27 00:51:21;;;;;;;3.72;2.80;;;23.90;65.80;;;;;;5068250;28;20747;-86
2022/07/27 00:53:50;;;;;;;3.20;2.75;;;23.90;66.40;;;;;;5066481;28;20415;-81
2022/07/27 00:56:17;;;;;;;3.22;2.63;;;23.90;65.40;;;;;;5068537;28;20451;-80
2022/07/27 00:58:47;;;;;;;3.38;3.05;;;23.90;65.40;;;;;;5070717;28;20407;-86
2022/07/27 01:01:16;;;;;;;2.70;2.47;;;24.00;66.00;;;;;;5068203;28;20411;-86
2022/07/27 01:03:43;;;;;;;2.70;2.50;;;23.90;66.20;;;;;;5069426;28;20830;-84
2022/07/27 01:06:14;;;;;;;3.65;3.30;;;23.90;66.20;;;;;;5066826;28;20426;-81
2022/07/27 01:08:42;;;;;;;4.20;3.55;;;23.90;66.10;;;;;;5070697;28;20409;-86
2022/07/27 01:11:10;;;;;;;2.28;1.98;;;23.90;66.50;;;;;;5070560;28;20407;-87
2022/07/27 01:13:37;;;;;;;2.47;2.28;;;23.80;66.80;;;;;;5065499;28;20478;-81
2022/07/27 01:16:07;;;;;;;2.73;2.53;;;23.80;66.90;;;;;;5063366;28;20984;-80
2022/07/27 01:18:37;;;;;;;2.80;2.58;;;23.70;67.00;;;;;;5058728;28;20797;-84
2022/07/27 01:21:08;;;;;;;2.67;2.47;;;23.70;67.10;;;;;;5070018;28;20415;-81
2022/07/27 01:23:35;;;;;;;2.80;2.60;;;23.70;67.10;;;;;;5063781;28;20436;-79
2022/07/27 01:26:04;;;;;;;3.20;2.90;;;23.70;67.30;;;;;;5067827;28;20395;-84
2022/07/27 01:28:31;;;;;;;3.20;2.90;;;23.60;67.90;;;;;;5069378;28;20456;-80
2022/07/27 01:30:58;;;;;;;3.75;2.90;;;23.60;68.40;;;;;;5077963;28;20437;-80
2022/07/27 01:33:25;;;;;;;2.80;2.40;;;23.50;68.40;;;;;;5069708;28;20406;-85
2022/07/27 01:35:56;;;;;;;3.40;3.10;;;23.50;68.50;;;;;;5069257;28;20468;-78
2022/07/27 01:38:23;;;;;;;2.90;2.65;;;23.50;68.70;;;;;;5069127;28;20430;-79
2022/07/27 01:40:51;;;;;;;3.35;3.05;;;23.40;68.80;;;;;;5063746;28;20412;-84
2022/07/27 01:43:18;;;;;;;2.83;2.58;;;23.40;68.90;;;;;;5066520;28;20414;-86
2022/07/27 01:45:45;;;;;;;2.70;2.47;;;23.40;68.80;;;;;;5069380;28;20452;-81
2022/07/27 01:48:12;;;;;;;3.05;2.28;;;23.40;68.60;;;;;;5065521;28;20434;-84
2022/07/27 01:50:39;;;;;;;3.60;3.22;;;23.40;68.30;;;;;;5068856;28;20437;-80
2022/07/27 01:53:13;;;;;;;4.45;3.60;;;23.40;68.70;;;;;;5070119;28;20411;-81
2022/07/27 01:55:40;;;;;;;3.65;3.28;;;23.40;69.30;;;;;;5069076;28;20411;-83
2022/07/27 01:58:08;;;;;;;4.50;3.65;;;23.40;69.70;;;;;;5067932;28;20454;-81
2022/07/27 02:00:35;;;;;;;3.55;3.20;;;23.30;70.60;;;;;;5068899;28;20494;-84
2022/07/27 02:03:04;;;;;;;4.78;3.60;;;23.30;71.00;;;;;;5069706;28;20798;-81
2022/07/27 02:05:31;;;;;;;6.45;4.20;;;23.30;71.40;;;;;;5068162;28;20403;-80
2022/07/27 02:07:58;;;;;;;12.32;4.45;;;23.20;71.80;;;;;;5068818;28;20740;-84
2022/07/27 02:10:25;;;;;;;5.72;4.55;;;23.20;72.50;;;;;;5068155;28;21048;-84
2022/07/27 02:12:52;;;;;;;5.13;4.13;;;23.10;73.40;;;;;;5069203;28;20414;-82
2022/07/27 02:15:22;;;;;;;5.15;4.53;;;23.00;73.60;;;;;;5065441;28;20770;-81
2022/07/27 02:17:52;;;;;;;6.15;4.30;;;23.00;74.10;;;;;;5062331;28;20418;-85
2022/07/27 02:20:22;;;;;;;5.68;4.90;;;22.90;74.20;;;;;;5071070;28;20774;-86
2022/07/27 02:22:50;;;;;;;3.80;3.50;;;22.90;74.30;;;;;;5071046;28;20411;-79
2022/07/27 02:25:18;;;;;;;3.30;3.00;;;22.90;74.10;;;;;;5066005;28;20582;-84
2022/07/27 02:27:46;;;;;;;4.18;3.70;;;22.90;73.80;;;;;;5072502;28;20501;-80
2022/07/27 02:30:16;;;;;;;5.90;4.53;;;22.90;73.60;;;;;;5072146;28;20411;-80
2022/07/27 02:32:44;;;;;;;5.30;4.80;;;22.90;74.30;;;;;;5073813;28;20430;-84
2022/07/27 02:35:11;;;;;;;5.75;5.22;;;22.70;75.00;;;;;;5071694;28;20452;-85
2022/07/27 02:37:46;;;;;;;6.77;6.07;;;22.60;76.40;;;;;;5069265;28;20824;-79
2022/07/27 02:40:17;;;;;;;6.45;5.80;;;22.40;77.50;;;;;;5071393;28;20497;-85
2022/07/27 02:42:45;;;;;;;7.22;5.90;;;22.20;78.70;;;;;;5067822;28;20411;-84
2022/07/27 02:45:14;;;;;;;5.45;4.95;;;22.00;79.40;;;;;;5070560;28;20544;-86
2022/07/27 02:47:41;;;;;;;4.23;3.93;;;22.00;80.00;;;;;;5067050;28;20744;-84
2022/07/27 02:50:09;;;;;;;4.70;4.20;;;21.90;79.90;;;;;;5071667;28;20460;-83
2022/07/27 02:52:36;;;;;;;4.38;3.97;;;22.00;79.80;;;;;;5085000;28;20472;-80
2022/07/27 02:55:04;;;;;;;3.70;3.45;;;22.00;79.40;;;;;;5064993;28;20755;-80
2022/07/27 02:57:34;;;;;;;4.00;3.70;;;22.10;79.10;;;;;;5083588;28;20434;-81
2022/07/27 03:00:10;;;;;;;4.00;3.55;;;22.10;78.70;;;;;;5071487;28;20438;-83
2022/07/27 03:02:38;;;;;;;4.20;3.80;;;22.20;78.20;;;;;;5070838;28;20410;-82
2022/07/27 03:05:06;;;;;;;4.07;3.30;;;22.30;77.80;;;;;;5071279;28;20403;-79
2022/07/27 03:07:33;;;;;;;3.60;3.30;;;22.40;77.60;;;;;;5070682;28;20403;-86
2022/07/27 03:10:01;;;;;;;4.30;3.90;;;22.40;77.10;;;;;;5070348;28;20975;-79
2022/07/27 03:12:28;;;;;;;3.83;3.53;;;22.50;76.90;;;;;;5070888;28;20735;-81
2022/07/27 03:14:55;;;;;;;4.40;4.00;;;22.60;76.60;;;;;;5069182;28;20474;-80
2022/07/27 03:17:22;;;;;;;5.00;4.05;;;22.60;76.80;;;;;;5066514;28;20446;-84
2022/07/27 03:19:49;;;;;;;4.65;4.25;;;22.60;76.90;;;;;;5074710;28;20810;-81
2022/07/27 03:22:16;;;;;;;4.78;3.70;;;22.50;77.20;;;;;;5074095;28;20445;-79
2022/07/27 03:24:43;;;;;;;5.25;4.80;;;22.50;77.60;;;;;;5064494;28;20433;-81
2022/07/27 03:27:10;;;;;;;5.10;4.38;;;22.60;77.70;;;;;;5070720;28;20410;-83
2022/07/27 03:29:37;;;;;;;4.65;4.25;;;22.50;77.50;;;;;;5067954;28;20760;-83
2022/07/27 03:32:04;;;;;;;4.93;4.38;;;22.50;77.50;;;;;;5070615;28;20399;-81
2022/07/27 03:34:34;;;;;;;4.75;3.80;;;22.50;77.50;;;;;;5069978;28;20411;-80
2022/07/27 03:37:00;;;;;;;4.20;3.80;;;22.50;77.30;;;;;;5070086;28;20438;-81
2022/07/27 03:39:27;;;;;;;4.40;4.05;;;22.40;77.10;;;;;;5069944;28;20864;-81
2022/07/27 03:41:54;;;;;;;3.67;3.40;;;22.50;77.30;;;;;;5070563;28;20406;-86
2022/07/27 03:44:21;;;;;;;4.35;3.97;;;22.40;77.10;;;;;;5069616;28;20914;-86
2022/07/27 03:46:48;;;;;;;4.10;3.72;;;22.40;77.10;;;;;;5070437;28;20505;-83
2022/07/27 03:49:15;;;;;;;3.97;3.38;;;22.40;76.90;;;;;;5069850;28;20501;-85
2022/07/27 03:51:42;;;;;;;4.63;4.30;;;22.40;76.70;;;;;;5066150;28;20404;-81
2022/07/27 03:54:09;;;;;;;4.68;4.30;;;22.40;76.70;;;;;;5063894;28;20765;-81
2022/07/27 03:56:36;;;;;;;5.10;3.78;;;22.40;76.50;;;;;;5069661;28;20398;-80
2022/07/27 03:59:03;;;;;;;4.20;3.60;;;22.40;76.50;;;;;;5071044;28;20948;-85
2022/07/27 04:01:30;;;;;;;7.25;6.55;;;22.40;76.40;;;;;;5069622;28;20437;-82
2022/07/27 04:03:57;;;;;;;11.05;9.77;;;22.40;76.20;;;;;;5070217;28;20410;-80
2022/07/27 04:06:25;;;;;;;10.63;9.52;;;22.40;76.60;;;;;;5069523;28;20414;-86
2022/07/27 04:08:52;;;;;;;8.03;7.13;;;22.30;77.30;;;;;;5071687;28;20472;-86
2022/07/27 04:11:32;;;;;;;7.25;5.53;;;22.30;77.30;;;;;;5069883;28;20430;-80
2022/07/27 04:13:59;;;;;;;9.23;8.32;;;22.30;77.30;;;;;;5070130;28;20452;-86
2022/07/27 04:16:26;;;;;;;8.52;7.38;;;22.30;77.70;;;;;;5066835;28;20798;-82
2022/07/27 04:18:58;;;;;;;5.82;4.97;;;22.10;78.80;;;;;;5056856;28;20404;-82
2022/07/27 04:21:25;;;;;;;4.47;4.07;;;21.90;79.80;;;;;;5068892;28;20461;-79
2022/07/27 04:24:02;;;;;;;4.47;4.18;;;21.80;79.90;;;;;;5066079;28;20411;-80
2022/07/27 04:26:29;;;;;;;5.47;4.97;;;21.90;79.90;;;;;;5069125;28;20411;-86
2022/07/27 04:28:56;;;;;;;4.53;4.13;;;21.90;79.70;;;;;;5066635;28;20464;-84
2022/07/27 04:31:23;;;;;;;4.60;4.10;;;21.80;79.60;;;;;;5069060;28;20418;-79
2022/07/27 04:33:50;;;;;;;5.53;4.65;;;21.90;79.60;;;;;;5069957;28;20889;-81
2022/07/27 04:36:17;;;;;;;4.50;4.10;;;21.90;79.40;;;;;;5069033;28;20993;-83
2022/07/27 04:38:44;;;;;;;5.07;4.28;;;22.00;79.30;;;;;;5067583;28;20415;-81
2022/07/27 04:41:11;;;;;;;4.63;4.22;;;22.00;79.10;;;;;;5062231;28;20476;-86
2022/07/27 04:43:38;;;;;;;4.73;4.33;;;22.00;79.00;;;;;;5063916;28;20418;-85
2022/07/27 04:46:06;;;;;;;5.22;3.60;;;22.10;79.40;;;;;;5069737;28;20407;-80
2022/07/27 04:48:40;;;;;;;4.28;3.88;;;22.10;79.00;;;;;;5069082;28;20402;-80
2022/07/27 04:51:16;;;;;;;5.90;5.40;;;22.10;78.80;;;;;;5063288;28;20411;-83
2022/07/27 04:53:43;;;;;;;6.27;5.50;;;22.10;80.10;;;;;;5069119;28;20468;-81
2022/07/27 04:56:25;;;;;;;6.00;4.15;;;22.10;79.40;;;;;;5067561;28;20438;-84
2022/07/27 04:58:53;;;;;;;5.00;4.60;;;22.00;79.50;;;;;;5069484;28;20428;-86
2022/07/27 05:01:21;;;;;;;4.60;4.20;;;22.00;79.60;;;;;;5066515;28;20398;-83
2022/07/27 05:03:48;;;;;;;4.68;4.22;;;22.10;79.70;;;;;;5069054;28;20414;-83
2022/07/27 05:06:16;;;;;;;4.68;4.28;;;22.00;79.60;;;;;;5069639;28;20468;-80
2022/07/27 05:08:43;;;;;;;4.90;4.50;;;22.00;79.50;;;;;;5062415;28;20804;-81
2022/07/27 05:11:10;;;;;;;5.10;4.60;;;22.10;79.90;;;;;;5069539;28;20886;-83
2022/07/27 05:13:39;;;;;;;4.82;4.43;;;22.10;80.00;;;;;;5068823;28;20480;-86
2022/07/27 05:16:08;;;;;;;5.32;4.45;;;22.10;80.00;;;;;;5070396;28;20498;-86
2022/07/27 05:18:38;;;;;;;5.03;4.55;;;22.10;80.10;;;;;;5063975;28;20835;-85
2022/07/27 05:21:07;;;;;;;4.63;4.18;;;22.10;80.00;;;;;;5066341;28;20468;-82
2022/07/27 05:23:34;;;;;;;6.45;4.93;;;22.10;80.00;;;;;;5064687;28;20411;-82
2022/07/27 05:26:01;;;;;;;4.80;4.30;;;22.20;80.00;;;;;;5069243;28;20452;-81
2022/07/27 05:28:28;;;;;;;5.50;4.93;;;22.20;80.40;;;;;;5068203;28;20442;-84
2022/07/27 05:30:55;;;;;;;5.13;4.63;;;22.20;80.00;;;;;;5065542;28;20448;-85
2022/07/27 05:33:22;;;;;;;6.68;5.97;;;22.30;80.00;;;;;;5103105;28;20498;-81
2022/07/27 05:35:49;;;;;;;5.57;5.07;;;22.30;79.80;;;;;;5069094;28;20404;-85
2022/07/27 05:38:16;;;;;;;5.78;5.28;;;22.30;79.70;;;;;;5068750;28;20411;-84
2022/07/27 05:40:44;;;;;;;4.78;4.30;;;22.30;79.60;;;;;;5065415;28;20400;-80
2022/07/27 05:43:11;;;;;;;4.07;3.67;;;22.30;79.60;;;;;;5063935;28;20863;-84
2022/07/27 05:45:38;;;;;;;5.25;4.75;;;22.40;79.40;;;;;;5099322;28;20435;-82
2022/07/27 05:48:05;;;;;;;4.57;4.18;;;22.40;79.30;;;;;;5066920;28;20415;-80
2022/07/27 05:50:32;;;;;;;5.32;4.82;;;22.50;79.50;;;;;;5069202;28;20464;-80
2022/07/27 05:52:59;;;;;;;4.25;3.85;;;22.50;79.60;;;;;;5068720;28;20411;-83
2022/07/27 05:55:26;;;;;;;3.88;3.55;;;22.50;79.30;;;;;;5065900;27;20423;-86
2022/07/27 05:57:54;;;;;;;4.85;4.45;;;22.60;78.90;;;;;;5071980;28;20440;-83
2022/07/27 06:00:21;;;;;;;4.95;4.32;;;22.60;78.80;;;;;;5069813;28;20399;-82
2022/07/27 06:02:48;;;;;;;4.88;4.47;;;22.70;78.80;;;;;;5067704;28;20403;-81
2022/07/27 06:05:15;;;;;;;5.35;4.07;;;22.70;78.40;;;;;;5059172;28;20404;-86
2022/07/27 06:07:58;;;;;;;4.03;3.65;;;22.70;78.20;;;;;;5051708;28;20459;-86
2022/07/27 06:10:31;;;;;;;3.80;3.50;;;22.80;78.00;;;;;;5035168;28;20431;-85
2022/07/27 06:12:59;;;;;;;4.18;3.78;;;22.80;77.70;;;;;;5052982;28;20481;-86
2022/07/27 06:15:26;;;;;;;5.57;4.10;;;22.90;77.40;;;;;;5028977;28;20408;-80
2022/07/27 06:17:54;;;;;;;6.20;4.45;;;23.00;77.40;;;;;;5036154;28;20408;-83
2022/07/27 06:20:22;;;;;;;4.45;4.07;;;23.00;77.30;;;;;;5034945;28;20417;-83
2022/07/27 06:22:54;;;;;;;4.97;4.50;;;23.00;77.10;;;;;;5052554;28;20397;-84
2022/07/27 06:25:23;;;;;;;5.07;4.57;;;23.00;76.90;;;;;;5042890;28;20408;-84
2022/07/27 06:28:02;;;;;;;4.60;4.15;;;23.10;76.60;;;;;;5036775;28;20412;-83
2022/07/27 06:30:29;;;;;;;4.80;4.05;;;23.00;76.30;;;;;;5032172;28;20460;-83
2022/07/27 06:32:57;;;;;;;5.00;4.47;;;23.10;75.70;;;;;;5032993;28;20463;-80
2022/07/27 06:35:25;;;;;;;4.47;3.88;;;23.10;75.10;;;;;;5035617;28;20412;-85
2022/07/27 06:37:52;;;;;;;4.68;4.10;;;23.20;74.70;;;;;;5034309;28;20823;-81
2022/07/27 06:40:19;;;;;;;3.63;3.33;;;23.30;75.00;;;;;;5025315;28;20414;-80
2022/07/27 06:42:46;;;;;;;4.35;3.95;;;23.30;74.60;;;;;;5032099;28;20425;-88
2022/07/27 06:45:13;;;;;;;3.45;3.15;;;23.40;73.80;;;;;;5035875;28;20900;-85
2022/07/27 06:47:40;;;;;;;4.40;3.70;;;23.40;73.20;;;;;;5049710;28;20421;-85
2022/07/27 06:50:17;;;;;;;6.28;4.18;;;23.60;73.40;;;;;;5036394;28;20458;-83
2022/07/27 06:52:44;;;;;;;5.55;4.07;;;23.60;72.50;;;;;;5034828;28;20408;-85
2022/07/27 06:55:11;;;;;;;4.60;4.20;;;23.80;72.00;;;;;;5035086;28;20554;-81
2022/07/27 06:57:38;;;;;;;4.55;4.15;;;23.80;71.70;;;;;;5034291;28;20416;-83
2022/07/27 07:00:06;;;;;;;5.60;4.30;;;23.80;71.60;;;;;;5034909;28;20469;-80
2022/07/27 07:02:33;;;;;;;5.50;4.10;;;23.80;71.60;;;;;;5035489;28;20404;-82
2022/07/27 07:05:00;;;;;;;4.07;3.70;;;23.90;71.70;;;;;;5053379;28;20448;-82
2022/07/27 07:07:27;;;;;;;4.53;3.80;;;24.00;72.10;;;;;;5071557;28;20403;-87
2022/07/27 07:09:54;;;;;;;4.28;3.90;;;24.10;71.80;;;;;;5066081;28;20443;-87
2022/07/27 07:12:20;;;;;;;5.05;4.50;;;24.20;71.50;;;;;;5071537;28;20407;-82
2022/07/27 07:14:47;;;;;;;6.03;4.60;;;24.20;70.50;;;;;;5070578;28;20480;-83
2022/07/27 07:17:14;;;;;;;3.80;3.50;;;24.20;70.70;;;;;;5069179;28;20402;-82
2022/07/27 07:19:42;;;;;;;4.97;4.57;;;24.30;71.10;;;;;;5069910;28;20890;-86
2022/07/27 07:22:09;;;;;;;5.82;4.50;;;24.40;71.20;;;;;;5071124;28;20766;-84
2022/07/27 07:24:36;;;;;;;4.80;4.30;;;24.50;70.80;;;;;;5073774;28;20456;-81
2022/07/27 07:27:03;;;;;;;4.38;3.97;;;24.60;71.20;;;;;;5070620;28;20763;-84
2022/07/27 07:29:30;;;;;;;4.70;4.00;;;24.80;71.10;;;;;;5071170;28;20407;-86
2022/07/27 07:31:56;;;;;;;4.68;4.13;;;25.00;68.20;;;;;;5069577;28;20418;-86
2022/07/27 07:34:23;;;;;;;4.35;3.58;;;25.30;66.80;;;;;;5071110;28;20437;-87
2022/07/27 07:36:50;;;;;;;4.40;2.97;;;25.60;63.50;;;;;;5069859;28;20410;-83
2022/07/27 07:39:17;;;;;;;3.73;3.40;;;25.70;63.40;;;;;;5070493;28;20445;-85
2022/07/27 07:41:44;;;;;;;3.67;3.28;;;25.90;62.80;;;;;;5067818;28;20407;-85
2022/07/27 07:44:11;;;;;;;4.53;3.50;;;26.00;63.10;;;;;;5069962;28;20414;-81
2022/07/27 07:46:38;;;;;;;4.00;3.22;;;26.20;62.00;;;;;;5070229;28;20409;-83
2022/07/27 07:49:12;;;;;;;3.83;2.72;;;26.30;61.30;;;;;;5065562;28;20531;-86
2022/07/27 07:51:40;;;;;;;4.05;3.20;;;26.50;60.60;;;;;;5070592;28;20486;-87
2022/07/27 07:54:07;;;;;;;4.07;2.97;;;26.60;59.60;;;;;;5070385;28;20414;-86
2022/07/27 07:56:34;;;;;;;2.83;2.63;;;26.80;58.30;;;;;;5070464;28;20460;-82
2022/07/27 07:59:03;;;;;;;2.80;2.58;;;26.90;59.20;;;;;;5069048;28;20402;-86
2022/07/27 08:01:30;;;;;;;2.67;2.45;;;27.10;56.80;;;;;;5068501;28;20415;-82
2022/07/27 08:03:57;;;;;;;2.87;2.47;;;27.10;56.30;;;;;;5069085;28;20433;-86
2022/07/27 08:06:24;;;;;;;2.60;2.40;;;27.10;56.30;;;;;;5070715;28;20775;-86
2022/07/27 08:08:51;;;;;;;2.63;2.17;;;27.20;55.80;;;;;;5070063;28;20778;-85
2022/07/27 08:11:18;;;;;;;2.13;2.00;;;27.20;55.00;;;;;;5066109;28;20415;-86
2022/07/27 08:13:45;;;;;;;2.03;1.83;;;27.20;55.40;;;;;;5070773;28;20987;-83
2022/07/27 08:16:13;;;;;;;3.15;2.17;;;27.30;56.40;;;;;;5062414;28;20399;-83
2022/07/27 08:18:40;;;;;;;2.20;2.00;;;27.40;54.70;;;;;;5079346;28;20404;-86
2022/07/27 08:21:07;;;;;;;2.60;2.40;;;27.50;54.50;;;;;;5065801;28;20430;-85
2022/07/27 08:23:34;;;;;;;3.23;2.10;;;27.50;54.50;;;;;;5071310;28;20398;-82
2022/07/27 08:26:01;;;;;;;3.20;2.60;;;27.50;54.50;;;;;;5062522;28;20399;-82
2022/07/27 08:28:33;;;;;;;3.63;2.50;;;27.70;54.00;;;;;;5067715;28;20411;-82
2022/07/27 08:31:03;;;;;;;4.40;2.70;;;27.80;53.40;;;;;;5064255;28;20407;-82
2022/07/27 08:33:40;;;;;;;3.17;2.10;;;27.90;53.20;;;;;;5100556;28;20430;-82
2022/07/27 08:36:07;;;;;;;2.80;2.50;;;28.00;53.50;;;;;;5069603;28;20407;-86
2022/07/27 08:38:34;;;;;;;3.08;2.10;;;28.20;52.50;;;;;;5070316;28;20402;-81
2022/07/27 08:41:02;;;;;;;2.63;2.23;;;28.20;52.70;;;;;;5066070;28;20399;-82
2022/07/27 08:43:30;;;;;;;3.05;2.40;;;28.20;52.10;;;;;;5069730;28;20415;-86
2022/07/27 08:45:59;;;;;;;2.53;2.20;;;28.30;51.20;;;;;;5064615;28;20459;-85
2022/07/27 08:48:29;;;;;;;3.65;2.00;;;28.50;50.50;;;;;;5069829;28;20435;-84
2022/07/27 08:50:57;;;;;;;2.70;2.00;;;28.40;49.50;;;;;;5068869;28;20965;-81
2022/07/27 08:53:24;;;;;;;2.58;2.00;;;28.40;49.70;;;;;;5068678;28;20407;-86
2022/07/27 08:55:51;;;;;;;2.45;2.25;;;28.50;49.80;;;;;;5064990;28;20783;-82
2022/07/27 08:58:18;;;;;;;3.00;2.47;;;28.50;49.30;;;;;;5070046;28;20422;-86
2022/07/27 09:00:48;;;;;;;2.60;2.40;;;28.10;49.30;;;;;;5070758;28;20414;-87
2022/07/27 09:03:17;;;;;;;3.45;2.55;;;27.80;50.90;;;;;;5068247;28;20432;-82
2022/07/27 09:05:57;;;;;;;3.28;2.75;;;27.70;53.00;;;;;;5102546;28;20407;-85
2022/07/27 09:08:26;;;;;;;3.05;2.08;;;27.90;53.00;;;;;;5068946;28;20399;-86
2022/07/27 09:10:58;;;;;;;3.83;2.97;;;28.00;53.30;;;;;;5069422;28;20979;-87
2022/07/27 09:13:31;;;;;;;2.03;1.83;;;28.30;51.70;;;;;;5066716;28;20397;-81
2022/07/27 09:16:00;;;;;;;2.78;2.50;;;28.60;51.00;;;;;;5063012;28;20417;-82
2022/07/27 09:18:46;;;;;;;2.72;2.22;;;28.70;49.10;;;;;;5059721;28;20405;-86
2022/07/27 09:21:22;;;;;;;3.80;2.53;;;28.70;49.60;;;;;;5067316;28;20419;-83
2022/07/27 09:23:52;;;;;;;3.45;2.25;;;28.70;49.70;;;;;;5065504;28;20724;-87
2022/07/27 09:26:22;;;;;;;2.90;2.10;;;28.70;49.30;;;;;;5069437;28;20426;-86
2022/07/27 09:29:09;;;;;;;2.83;1.92;;;28.70;48.50;;;;;;5070864;28;20846;-83
2022/07/27 09:31:50;;;;;;;2.60;2.00;;;28.90;48.90;;;;;;5072555;28;20495;-88
2022/07/27 09:34:29;;;;;;;3.22;2.20;;;29.10;48.40;;;;;;5071899;28;20504;-82
2022/07/27 09:36:57;;;;;;;2.85;1.77;;;29.20;48.00;;;;;;5071335;28;20399;-82
2022/07/27 09:39:27;;;;;;;4.33;1.80;;;29.40;47.60;;;;;;5072864;28;20417;-85
2022/07/27 09:41:57;;;;;;;2.65;1.98;;;29.60;46.50;;;;;;5073092;28;20821;-85
2022/07/27 09:44:37;;;;;;;2.20;2.00;;;29.70;46.30;;;;;;5068359;28;20422;-86
2022/07/27 09:47:25;;;;;;;2.60;2.10;;;29.70;47.50;;;;;;5066839;28;20440;-84
2022/07/27 09:49:55;;;;;;;2.35;1.88;;;29.90;46.70;;;;;;5074946;28;20410;-88
2022/07/27 09:52:29;;;;;;;2.43;1.90;;;30.10;45.40;;;;;;5074164;28;20434;-87
2022/07/27 09:55:05;;;;;;;1.60;1.50;;;30.20;45.10;;;;;;5068529;28;20414;-85
2022/07/27 09:57:53;;;;;;;2.70;1.60;;;30.30;45.20;;;;;;5104391;27;20415;-87
2022/07/27 10:00:23;;;;;;;2.85;2.00;;;30.50;44.70;;;;;;5069965;28;20431;-86
2022/07/27 10:02:51;;;;;;;2.40;1.70;;;30.60;44.00;;;;;;5105921;28;20472;-81
2022/07/27 10:05:20;;;;;;;2.58;1.90;;;30.60;45.10;;;;;;5070606;28;20898;-83
2022/07/27 10:07:48;;;;;;;2.92;2.03;;;30.80;45.10;;;;;;5066775;28;20411;-86
2022/07/27 10:10:15;;;;;;;2.58;1.65;;;30.80;43.90;;;;;;5105502;27;20418;-87
2022/07/27 10:12:43;;;;;;;1.50;1.13;;;30.90;43.60;;;;;;5069553;28;20407;-88
2022/07/27 10:15:13;;;;;;;1.35;1.25;;;30.90;44.90;;;;;;5102303;28;20434;-88
2022/07/27 10:17:42;;;;;;;3.20;1.60;;;31.10;43.00;;;;;;5068539;28;20456;-88
2022/07/27 10:20:12;;;;;;;2.53;1.70;;;31.20;42.50;;;;;;5067997;28;20431;-82
2022/07/27 10:22:51;;;;;;;3.78;1.80;;;31.40;43.30;;;;;;5084767;28;20796;-87
2022/07/27 10:25:18;;;;;;;1.98;1.60;;;31.50;44.40;;;;;;5060361;28;20434;-83
2022/07/27 10:28:05;;;;;;;3.07;1.80;;;31.60;42.50;;;;;;5100331;28;20424;-83
2022/07/27 10:30:32;;;;;;;2.07;1.40;;;31.40;41.40;;;;;;5105830;27;20429;-86
2022/07/27 10:32:59;;;;;;;1.80;1.42;;;31.20;42.90;;;;;;5067049;28;20427;-83
2022/07/27 10:35:33;;;;;;;2.55;1.73;;;31.20;42.70;;;;;;5071308;28;20500;-88
2022/07/27 10:38:17;;;;;;;1.70;1.35;;;31.20;42.90;;;;;;5069804;28;20418;-84
2022/07/27 10:40:44;;;;;;;2.20;1.73;;;31.20;42.90;;;;;;5069603;28;20405;-84
2022/07/27 10:43:21;;;;;;;3.00;1.67;;;31.30;42.50;;;;;;5071985;28;20453;-88
2022/07/27 10:45:50;;;;;;;2.30;1.63;;;31.40;42.70;;;;;;5072658;28;20410;-84
2022/07/27 10:48:39;;;;;;;2.28;1.52;;;31.50;42.50;;;;;;5068784;28;20890;-85
2022/07/27 10:51:15;;;;;;;1.95;1.40;;;31.60;42.50;;;;;;5070046;28;20411;-83
2022/07/27 10:53:44;;;;;;;1.67;1.58;;;31.80;42.20;;;;;;5069979;28;20829;-84
2022/07/27 10:56:47;;;;;;;2.33;1.20;;;32.00;41.50;;;;;;5058812;28;20440;-84
2022/07/27 10:59:43;;;;;;;2.33;1.35;;;32.00;38.20;;;;;;5071813;28;20403;-83
2022/07/27 11:02:39;;;;;;;2.08;1.10;;;32.10;39.50;;;;;;5069852;28;20478;-87
2022/07/27 11:05:07;;;;;;;1.73;1.00;;;32.30;38.70;;;;;;5102512;28;20437;-84
2022/07/27 11:07:55;;;;;;;2.20;1.00;;;32.50;38.30;;;;;;5072255;28;20437;-83
2022/07/27 11:10:47;;;;;;;2.13;1.00;;;32.60;37.60;;;;;;5067623;28;20402;-83
2022/07/27 11:13:20;;;;;;;1.13;1.00;;;32.80;38.90;;;;;;5068523;28;20460;-88
2022/07/27 11:15:55;;;;;;;1.30;1.00;;;32.80;37.20;;;;;;5070561;28;20932;-86
2022/07/27 11:18:50;;;;;;;1.70;1.00;;;32.90;37.70;;;;;;5069176;28;20411;-85
2022/07/27 11:21:26;;;;;;;1.17;0.97;;;32.90;37.10;;;;;;5084867;28;20917;-85
2022/07/27 11:23:56;;;;;;;2.22;1.10;;;32.80;36.80;;;;;;5103233;28;20402;-86
2022/07/27 11:26:28;;;;;;;1.80;1.02;;;32.70;36.50;;;;;;5071437;28;20411;-86
2022/07/27 11:28:56;;;;;;;1.20;0.90;;;32.60;36.40;;;;;;5065575;28;20862;-83
2022/07/27 11:31:23;;;;;;;1.15;0.68;;;32.60;36.00;;;;;;5071808;28;20457;-86
2022/07/27 11:34:12;;;;;;;1.30;0.70;;;32.60;36.50;;;;;;5059335;28;20411;-84
2022/07/27 11:36:48;;;;;;;1.10;0.60;;;32.90;35.30;;;;;;5068384;28;20457;-86
2022/07/27 11:39:25;;;;;;;0.93;0.70;;;33.00;33.70;;;;;;5102480;28;20390;-88
2022/07/27 11:42:13;;;;;;;0.30;0.30;;;33.20;30.60;;;;;;5068949;28;20825;-86
2022/07/27 11:44:48;;;;;;;0.50;0.30;;;33.40;30.10;;;;;;5062288;28;20418;-87
2022/07/27 11:47:18;;;;;;;0.68;0.55;;;33.60;30.90;;;;;;5065478;28;20454;-85
2022/07/27 11:49:45;;;;;;;0.90;0.70;;;33.70;33.10;;;;;;5101935;27;20410;-86
2022/07/27 11:52:16;;;;;;;1.17;0.70;;;33.80;33.70;;;;;;5068576;28;20395;-86
2022/07/27 11:54:50;;;;;;;0.70;0.50;;;33.50;30.80;;;;;;5057006;28;20450;-85
2022/07/27 11:57:21;;;;;;;0.50;0.40;;;33.20;31.50;;;;;;5062934;28;20462;-86
2022/07/27 11:59:48;;;;;;;0.40;0.40;;;33.20;31.00;;;;;;5067301;28;20414;-87
2022/07/27 12:02:18;;;;;;;0.60;0.40;;;33.30;30.80;;;;;;5069578;28;20927;-84
2022/07/27 12:04:50;;;;;;;0.50;0.40;;;33.50;31.10;;;;;;5061964;28;20412;-84
2022/07/27 12:07:29;;;;;;;1.60;0.32;;;33.70;30.90;;;;;;5065493;28;20806;-86
2022/07/27 12:09:58;;;;;;;0.40;0.40;;;33.90;30.80;;;;;;5068926;28;20419;-87
2022/07/27 12:12:29;;;;;;;0.85;0.40;;;34.10;31.20;;;;;;5063019;28;20414;-87
2022/07/27 12:15:15;;;;;;;1.10;0.60;;;34.10;30.10;;;;;;5055115;28;20422;-87
2022/07/27 12:18:02;;;;;;;1.40;0.50;;;33.90;29.70;;;;;;5068074;28;20496;-83
2022/07/27 12:20:34;;;;;;;0.60;0.40;;;33.60;30.20;;;;;;5069321;28;20411;-87
2022/07/27 12:23:05;;;;;;;0.55;0.40;;;33.40;31.50;;;;;;5070204;28;20431;-88
2022/07/27 12:25:33;;;;;;;0.80;0.40;;;33.30;30.90;;;;;;5070227;28;20766;-84
2022/07/27 12:28:12;;;;;;;1.00;0.40;;;33.30;32.40;;;;;;5062743;27;20748;-84
2022/07/27 12:30:51;;;;;;;2.50;0.40;;;33.40;31.20;;;;;;5069804;28;20407;-84
2022/07/27 12:33:35;;;;;;;0.90;0.40;;;33.40;31.30;;;;;;5065687;28;20950;-87
2022/07/27 12:36:07;;;;;;;1.20;0.50;;;33.60;31.50;;;;;;5071133;28;20425;-84
2022/07/27 12:38:43;;;;;;;1.42;0.50;;;33.60;31.10;;;;;;5073702;28;20423;-88
2022/07/27 12:41:21;;;;;;;0.70;0.50;;;33.30;31.20;;;;;;5062436;28;20410;-86
2022/07/27 12:44:06;;;;;;;0.75;0.50;;;33.10;31.80;;;;;;5062512;28;20417;-83
2022/07/27 12:46:50;;;;;;;0.60;0.50;;;33.20;31.50;;;;;;5066591;28;20410;-85
2022/07/27 12:49:17;;;;;;;0.90;0.63;;;33.40;31.80;;;;;;5062558;28;20426;-83
2022/07/27 12:51:45;;;;;;;1.30;0.57;;;33.60;31.70;;;;;;5068069;28;20921;-87
2022/07/27 12:54:12;;;;;;;0.93;0.50;;;33.90;31.80;;;;;;5070549;28;20422;-84
2022/07/27 12:56:39;;;;;;;1.40;0.57;;;34.20;31.90;;;;;;5071121;28;20411;-85
2022/07/27 12:59:06;;;;;;;0.85;0.77;;;34.50;31.70;;;;;;5071288;28;20411;-87
2022/07/27 13:01:33;;;;;;;1.67;0.70;;;34.60;31.20;;;;;;5069502;28;20409;-83